createdAt,value
2023-08-12T00:00:46.199Z,3.80
2023-08-12T00:03:34.321Z,3.50
2023-08-12T00:06:02.720Z,2.60
2023-08-12T00:08:30.158Z,3.40
2023-08-12T00:10:57.602Z,3.30
2023-08-12T00:13:25.618Z,3.60
2023-08-12T00:15:54.210Z,4.00
2023-08-12T00:18:23.107Z,3.60
2023-08-12T00:20:57.688Z,4.90
2023-08-12T00:23:26.148Z,5.00
2023-08-12T00:25:53.551Z,3.30
2023-08-12T00:28:21.206Z,3.70
2023-08-12T00:30:50.120Z,3.80
2023-08-12T00:33:18.981Z,3.40
2023-08-12T00:35:46.663Z,4.20
2023-08-12T00:38:14.493Z,4.90
2023-08-12T00:40:42.547Z,3.10
2023-08-12T00:43:10.964Z,4.70
2023-08-12T00:45:38.413Z,3.90
2023-08-12T00:48:06.819Z,2.90
2023-08-12T00:50:40.569Z,4.50
2023-08-12T00:53:09.845Z,4.30
2023-08-12T00:55:38.266Z,4.90
2023-08-12T00:58:05.855Z,5.50
2023-08-12T01:00:34.984Z,5.50
2023-08-12T01:03:04.296Z,3.80
2023-08-12T01:05:31.878Z,4.60
2023-08-12T01:08:00.098Z,4.70
2023-08-12T01:10:34.956Z,4.30
2023-08-12T01:13:28.313Z,5.20
2023-08-12T01:15:57.411Z,5.70
2023-08-12T01:18:25.947Z,4.00
2023-08-12T01:20:58.996Z,3.70
2023-08-12T01:23:26.727Z,4.90
2023-08-12T01:25:54.809Z,3.90
2023-08-12T01:28:22.064Z,6.30
2023-08-12T01:31:05.588Z,4.50
2023-08-12T01:33:57.703Z,5.10
2023-08-12T01:36:27.910Z,5.10
2023-08-12T01:39:01.421Z,6.10
2023-08-12T01:41:30.153Z,5.00
2023-08-12T01:43:58.298Z,6.40
2023-08-12T01:46:26.568Z,5.30
2023-08-12T01:48:54.238Z,4.60
2023-08-12T01:51:21.640Z,5.90
2023-08-12T01:53:48.892Z,5.30
2023-08-12T01:56:16.452Z,6.20
2023-08-12T01:58:43.621Z,4.20
2023-08-12T02:01:10.942Z,5.70
2023-08-12T02:03:39.538Z,5.10
2023-08-12T02:06:08.428Z,5.10
2023-08-12T02:08:35.772Z,6.10
2023-08-12T02:11:03.362Z,5.00
2023-08-12T02:13:31.280Z,5.80
2023-08-12T02:15:58.705Z,4.80
2023-08-12T02:18:26.172Z,4.40
2023-08-12T02:20:53.369Z,5.90
2023-08-12T02:23:20.508Z,5.80
2023-08-12T02:25:48.250Z,5.30
2023-08-12T02:28:16.584Z,4.60
2023-08-12T02:30:45.056Z,4.60
2023-08-12T02:33:12.343Z,4.90
2023-08-12T02:35:40.997Z,5.90
2023-08-12T02:38:08.924Z,4.60
2023-08-12T02:40:36.851Z,4.90
2023-08-12T02:43:05.233Z,5.20
2023-08-12T02:45:36.449Z,4.40
2023-08-12T02:48:04.678Z,4.10
2023-08-12T02:50:32.549Z,5.30
2023-08-12T02:52:59.715Z,4.30
2023-08-12T02:55:28.083Z,5.50
2023-08-12T02:57:55.944Z,5.10
2023-08-12T03:00:25.474Z,5.30
2023-08-12T03:02:52.768Z,5.50
2023-08-12T03:05:21.733Z,4.90
2023-08-12T03:07:50.581Z,7.20
2023-08-12T03:10:19.149Z,5.00
2023-08-12T03:12:46.689Z,6.30
2023-08-12T03:15:14.502Z,5.70
2023-08-12T03:17:42.761Z,5.60
2023-08-12T03:20:17.448Z,5.70
2023-08-12T03:22:44.993Z,7.80
2023-08-12T03:25:15.520Z,7.00
2023-08-12T03:27:43.376Z,7.00
2023-08-12T03:30:11.448Z,5.60
2023-08-12T03:32:39.839Z,5.80
2023-08-12T03:35:07.599Z,5.50
2023-08-12T03:37:35.903Z,5.50
2023-08-12T03:40:04.356Z,4.90
2023-08-12T03:42:32.084Z,6.70
2023-08-12T03:44:59.752Z,4.90
2023-08-12T03:47:30.660Z,4.30
2023-08-12T03:49:58.024Z,5.20
2023-08-12T03:52:27.251Z,6.20
2023-08-12T03:54:55.477Z,6.90
2023-08-12T03:57:22.745Z,6.50
2023-08-12T03:59:50.140Z,6.30
2023-08-12T04:02:17.338Z,5.00
2023-08-12T04:04:47.015Z,6.60
2023-08-12T04:07:14.922Z,5.00
2023-08-12T04:09:42.566Z,5.30
2023-08-12T04:12:10.877Z,6.10
2023-08-12T04:14:41.477Z,5.90
2023-08-12T04:17:09.698Z,5.20
2023-08-12T04:19:37.623Z,5.30
2023-08-12T04:22:06.315Z,5.80
2023-08-12T04:24:34.676Z,4.80
2023-08-12T04:27:02.355Z,5.20
2023-08-12T04:29:30.349Z,5.60
2023-08-12T04:31:57.675Z,6.00
2023-08-12T04:34:24.952Z,5.00
2023-08-12T04:36:53.106Z,6.80
2023-08-12T04:39:20.416Z,5.30
2023-08-12T04:41:49.016Z,6.50
2023-08-12T04:44:16.686Z,4.90
2023-08-12T04:46:44.928Z,6.40
2023-08-12T04:49:12.771Z,4.90
2023-08-12T04:51:42.600Z,5.50
2023-08-12T04:54:10.780Z,5.70
2023-08-12T04:56:38.779Z,5.90
2023-08-12T04:59:07.505Z,5.60
2023-08-12T05:01:42.929Z,4.80
2023-08-12T05:04:19.029Z,5.80
2023-08-12T05:06:52.956Z,5.10
2023-08-12T05:09:20.707Z,5.30
2023-08-12T05:12:02.323Z,5.00
2023-08-12T05:14:29.993Z,5.40
2023-08-12T05:16:57.400Z,5.60
2023-08-12T05:19:34.680Z,4.70
2023-08-12T05:22:02.001Z,5.40
2023-08-12T05:24:29.259Z,6.10
2023-08-12T05:26:57.918Z,6.30
2023-08-12T05:29:25.514Z,4.50
2023-08-12T05:31:57.110Z,4.60
2023-08-12T05:34:27.808Z,4.90
2023-08-12T05:36:55.042Z,4.60
2023-08-12T05:39:22.588Z,5.70
2023-08-12T05:41:52.715Z,5.10
2023-08-12T05:44:25.669Z,5.10
2023-08-12T05:46:55.742Z,4.70
2023-08-12T05:49:39.592Z,4.70
2023-08-12T05:58:58.556Z,4.50
2023-08-12T06:01:26.347Z,4.30
2023-08-12T06:04:12.950Z,4.80
2023-08-12T06:06:53.618Z,5.10
2023-08-12T06:09:23.358Z,4.10
2023-08-12T06:11:50.627Z,5.00
2023-08-12T06:14:19.104Z,3.40
2023-08-12T06:16:46.426Z,3.50
2023-08-12T06:19:13.641Z,4.00
2023-08-12T06:21:40.818Z,4.10
2023-08-12T06:24:08.078Z,3.80
2023-08-12T06:26:35.417Z,3.70
2023-08-12T06:29:05.688Z,3.40
2023-08-12T06:31:33.488Z,3.40
2023-08-12T06:34:01.818Z,3.90
2023-08-12T06:36:29.726Z,3.60
2023-08-12T06:38:57.923Z,2.50
2023-08-12T06:41:25.360Z,3.90
2023-08-12T06:43:52.950Z,3.00
2023-08-12T06:46:21.237Z,4.00
2023-08-12T06:48:49.134Z,3.10
2023-08-12T06:51:16.444Z,3.20
2023-08-12T06:53:43.926Z,3.30
2023-08-12T06:56:12.169Z,3.70
2023-08-12T06:58:39.624Z,5.80
2023-08-12T07:01:06.998Z,3.20
2023-08-12T07:03:35.017Z,3.10
2023-08-12T07:06:04.039Z,3.90
2023-08-12T07:08:33.141Z,3.10
2023-08-12T07:11:00.520Z,3.20
2023-08-12T07:13:29.343Z,3.10
2023-08-12T07:15:58.012Z,3.80
2023-08-12T07:18:25.955Z,2.80
2023-08-12T07:20:53.524Z,3.30
2023-08-12T07:23:23.167Z,2.60
2023-08-12T07:25:51.249Z,2.80
2023-08-12T07:28:18.490Z,3.10
2023-08-12T07:30:46.439Z,2.80
2023-08-12T07:33:21.022Z,3.00
2023-08-12T07:35:48.315Z,2.90
2023-08-12T07:38:15.878Z,2.40
2023-08-12T07:40:44.199Z,2.70
2023-08-12T07:43:11.510Z,3.20
2023-08-12T07:45:51.390Z,3.10
2023-08-12T07:48:21.921Z,3.50
2023-08-12T07:50:56.926Z,2.30
2023-08-12T07:53:24.306Z,2.60
2023-08-12T07:55:51.921Z,2.70
2023-08-12T07:58:19.653Z,3.60
2023-08-12T08:00:47.047Z,2.30
2023-08-12T08:03:15.930Z,1.80
2023-08-12T08:05:46.153Z,2.20
2023-08-12T08:08:16.665Z,2.00
2023-08-12T08:10:44.016Z,1.60
2023-08-12T08:13:11.232Z,2.30
2023-08-12T08:15:38.940Z,2.50
2023-08-12T08:18:08.334Z,2.10
2023-08-12T08:20:36.015Z,2.30
2023-08-12T08:23:03.468Z,2.60
2023-08-12T08:25:31.835Z,3.20
2023-08-12T08:27:59.424Z,2.00
2023-08-12T08:30:27.091Z,2.40
2023-08-12T08:32:54.613Z,2.00
2023-08-12T08:35:22.786Z,2.30
2023-08-12T08:37:50.727Z,1.80
2023-08-12T08:40:19.985Z,2.00
2023-08-12T08:42:55.560Z,1.60
2023-08-12T08:45:24.199Z,1.90
2023-08-12T08:47:53.273Z,2.00
2023-08-12T08:50:22.313Z,2.00
2023-08-12T08:52:52.337Z,1.80
2023-08-12T08:55:22.672Z,1.40
2023-08-12T08:57:51.207Z,1.90
2023-08-12T09:00:20.532Z,1.80
2023-08-12T09:02:50.673Z,1.80
2023-08-12T09:05:21.077Z,1.60
2023-08-12T09:07:51.249Z,1.40
2023-08-12T09:10:21.505Z,1.60
2023-08-12T09:12:49.102Z,1.80
2023-08-12T09:15:17.833Z,1.70
2023-08-12T09:17:45.387Z,1.90
2023-08-12T09:20:13.251Z,1.70
2023-08-12T09:22:42.009Z,2.40
2023-08-12T09:25:11.191Z,2.30
2023-08-12T09:27:39.040Z,2.80
2023-08-12T09:30:08.270Z,1.70
2023-08-12T09:32:35.880Z,1.70
2023-08-12T09:35:04.578Z,2.10
2023-08-12T09:37:32.636Z,1.90
2023-08-12T09:39:59.956Z,1.60
2023-08-12T09:42:28.656Z,2.50
2023-08-12T09:44:57.680Z,1.30
2023-08-12T09:47:28.100Z,1.90
2023-08-12T09:49:55.676Z,2.00
2023-08-12T09:52:23.130Z,1.70
2023-08-12T09:54:55.685Z,1.40
2023-08-12T09:57:28.452Z,1.80
2023-08-12T09:59:58.441Z,1.50
2023-08-12T10:02:27.953Z,1.30
2023-08-12T10:04:57.534Z,1.30
2023-08-12T10:07:26.130Z,1.50
2023-08-12T10:09:54.473Z,1.40
2023-08-12T10:12:22.845Z,1.50
2023-08-12T10:14:50.045Z,1.30
2023-08-12T10:17:29.587Z,1.50
2023-08-12T10:20:08.442Z,2.00
2023-08-12T10:22:37.099Z,2.00
2023-08-12T10:25:04.745Z,2.30
2023-08-12T10:27:32.099Z,1.90
2023-08-12T10:30:00.125Z,1.50
2023-08-12T10:32:27.827Z,1.20
2023-08-12T10:34:57.187Z,1.30
2023-08-12T10:37:26.197Z,1.30
2023-08-12T10:39:56.385Z,1.30
2023-08-12T10:42:48.958Z,2.80
2023-08-12T10:45:17.834Z,1.40
2023-08-12T10:48:21.581Z,2.20
2023-08-12T10:50:52.979Z,1.80
2023-08-12T10:53:33.817Z,1.40
2023-08-12T10:56:03.574Z,1.40
2023-08-12T10:58:42.092Z,1.60
2023-08-12T11:01:17.443Z,3.40
2023-08-12T11:03:45.299Z,1.80
2023-08-12T11:06:13.213Z,2.30
2023-08-12T11:08:48.289Z,1.70
2023-08-12T11:11:26.013Z,1.30
2023-08-12T11:14:00.373Z,1.40
2023-08-12T11:16:38.110Z,1.30
2023-08-12T11:19:05.551Z,1.30
2023-08-12T11:21:34.320Z,1.40
2023-08-12T11:24:03.176Z,1.20
2023-08-12T11:26:31.102Z,1.80
2023-08-12T11:28:58.308Z,1.20
2023-08-12T11:31:26.598Z,1.60
2023-08-12T11:33:54.592Z,1.50
2023-08-12T11:36:21.803Z,1.30
2023-08-12T11:38:49.993Z,0.90
2023-08-12T11:41:23.774Z,1.30
2023-08-12T11:43:50.906Z,1.60
2023-08-12T11:46:18.097Z,1.40
2023-08-12T11:48:45.340Z,1.40
2023-08-12T11:51:12.969Z,1.40
2023-08-12T11:53:40.508Z,1.30
2023-08-12T11:56:07.832Z,1.10
2023-08-12T11:58:51.362Z,1.20
2023-08-12T12:01:20.069Z,1.40
2023-08-12T12:03:52.152Z,1.30
2023-08-12T12:06:36.966Z,1.50
2023-08-12T12:09:11.294Z,1.30
2023-08-12T12:11:39.104Z,2.00
2023-08-12T12:14:08.353Z,2.10
2023-08-12T12:16:40.450Z,1.50
2023-08-12T12:19:21.202Z,1.70
2023-08-12T12:21:52.846Z,1.30
2023-08-12T12:24:21.377Z,1.70
2023-08-12T12:26:50.130Z,1.10
2023-08-12T12:29:17.629Z,1.70
2023-08-12T12:31:45.144Z,1.30
2023-08-12T12:34:14.850Z,1.90
2023-08-12T12:36:42.781Z,1.20
2023-08-12T12:39:11.302Z,1.90
2023-08-12T12:41:40.359Z,1.40
2023-08-12T12:44:08.329Z,1.80
2023-08-12T12:46:37.632Z,1.30
2023-08-12T12:49:05.529Z,1.30
2023-08-12T12:51:33.882Z,1.80
2023-08-12T12:54:01.527Z,1.50
2023-08-12T12:56:32.464Z,0.90
2023-08-12T12:59:10.971Z,1.00
2023-08-12T13:01:43.674Z,1.50
2023-08-12T13:04:14.348Z,1.40
2023-08-12T13:06:49.874Z,1.60
2023-08-12T13:09:17.814Z,2.00
2023-08-12T13:11:59.376Z,1.30
2023-08-12T13:14:27.034Z,1.70
2023-08-12T13:16:55.354Z,2.10
2023-08-12T13:19:23.116Z,1.80
2023-08-12T13:21:51.471Z,1.90
2023-08-12T13:24:20.890Z,2.10
2023-08-12T13:26:49.284Z,1.00
2023-08-12T13:29:21.267Z,1.30
2023-08-12T13:31:48.706Z,1.50
2023-08-12T13:34:17.022Z,1.40
2023-08-12T13:36:45.486Z,1.30
2023-08-12T13:39:14.754Z,1.60
2023-08-12T13:41:44.187Z,1.40
2023-08-12T13:44:12.878Z,1.60
2023-08-12T13:46:47.664Z,1.90
2023-08-12T13:49:15.485Z,2.20
2023-08-12T13:51:44.245Z,1.20
2023-08-12T13:54:13.819Z,1.70
2023-08-12T13:56:41.272Z,1.50
2023-08-12T13:59:08.932Z,1.20
2023-08-12T14:01:36.704Z,1.70
2023-08-12T14:04:09.481Z,1.40
2023-08-12T14:06:40.787Z,1.50
2023-08-12T14:09:14.406Z,1.30
2023-08-12T14:11:42.254Z,1.10
2023-08-12T14:14:09.817Z,1.70
2023-08-12T14:16:37.922Z,1.90
2023-08-12T14:19:25.331Z,1.80
2023-08-12T14:21:52.650Z,2.30
2023-08-12T14:24:20.244Z,1.40
2023-08-12T14:26:48.334Z,1.40
2023-08-12T14:29:16.075Z,1.60
2023-08-12T14:31:43.319Z,1.30
2023-08-12T14:34:10.454Z,1.20
2023-08-12T14:36:37.608Z,1.10
2023-08-12T14:39:04.855Z,1.50
2023-08-12T14:41:31.976Z,1.60
2023-08-12T14:43:59.099Z,1.30
2023-08-12T14:46:26.480Z,1.30
2023-08-12T14:48:54.652Z,0.80
2023-08-12T14:51:21.849Z,1.60
2023-08-12T14:53:49.074Z,1.00
2023-08-12T14:56:16.800Z,1.40
2023-08-12T14:58:43.947Z,0.90
2023-08-12T15:01:11.410Z,1.60
2023-08-12T15:03:38.617Z,1.30
2023-08-12T15:06:06.552Z,1.60
2023-08-12T15:08:33.972Z,1.40
2023-08-12T15:11:01.256Z,1.40
2023-08-12T15:13:28.352Z,1.30
2023-08-12T15:15:55.808Z,1.30
2023-08-12T15:18:23.640Z,1.10
2023-08-12T15:20:51.454Z,1.30
2023-08-12T15:23:18.626Z,1.60
2023-08-12T15:25:46.287Z,0.90
2023-08-12T15:28:13.934Z,1.40
2023-08-12T15:30:41.210Z,2.40
2023-08-12T15:33:08.517Z,1.20
2023-08-12T15:35:38.634Z,1.40
2023-08-12T15:38:06.102Z,0.80
2023-08-12T15:40:33.601Z,1.10
2023-08-12T15:43:01.270Z,1.60
2023-08-12T15:45:29.265Z,1.60
2023-08-12T15:48:09.367Z,1.10
2023-08-12T15:50:38.790Z,2.40
2023-08-12T15:53:11.114Z,1.30
2023-08-12T15:55:52.737Z,1.20
2023-08-12T15:58:24.771Z,2.10
2023-08-12T16:00:54.157Z,1.40
2023-08-12T16:03:21.849Z,1.50
2023-08-12T16:05:49.601Z,1.20
2023-08-12T16:08:17.643Z,2.40
2023-08-12T16:10:45.125Z,1.90
2023-08-12T16:13:12.562Z,1.40
2023-08-12T16:15:39.970Z,1.70
2023-08-12T16:18:09.276Z,2.20
2023-08-12T16:20:37.629Z,1.60
2023-08-12T16:23:05.431Z,2.10
2023-08-12T16:25:33.080Z,2.10
2023-08-12T16:28:00.645Z,2.80
2023-08-12T16:30:28.448Z,2.80
2023-08-12T16:32:55.750Z,2.00
2023-08-12T16:35:23.153Z,1.90
2023-08-12T16:37:50.412Z,1.60
2023-08-12T16:40:18.921Z,1.90
2023-08-12T16:42:46.139Z,1.30
2023-08-12T16:45:13.854Z,1.70
2023-08-12T16:47:41.216Z,1.50
2023-08-12T16:50:09.067Z,1.30
2023-08-12T16:52:36.239Z,1.20
2023-08-12T16:55:04.658Z,1.70
2023-08-12T16:57:31.872Z,1.50
2023-08-12T16:59:59.093Z,2.00
2023-08-12T17:02:26.399Z,1.60
2023-08-12T17:04:53.507Z,2.50
2023-08-12T17:07:21.013Z,1.80
2023-08-12T17:09:48.199Z,2.00
2023-08-12T17:12:15.859Z,1.90
2023-08-12T17:14:43.337Z,2.20
2023-08-12T17:17:10.509Z,15.10
2023-08-12T17:19:39.485Z,22.20
2023-08-12T17:22:06.747Z,21.50
2023-08-12T17:24:33.950Z,16.20
2023-08-12T17:27:01.204Z,7.90
2023-08-12T17:29:28.417Z,5.80
2023-08-12T17:31:55.628Z,4.50
2023-08-12T17:34:22.947Z,4.60
2023-08-12T17:36:50.241Z,3.40
2023-08-12T17:39:17.921Z,3.80
2023-08-12T17:41:48.119Z,30.00
2023-08-12T17:44:16.400Z,17.30
2023-08-12T17:46:44.715Z,17.10
2023-08-12T17:49:11.994Z,14.60
2023-08-12T17:51:43.340Z,10.40
2023-08-12T17:54:10.760Z,9.80
2023-08-12T17:56:37.948Z,7.90
2023-08-12T17:59:06.127Z,7.60
2023-08-12T18:01:33.450Z,6.50
2023-08-12T18:04:01.862Z,5.70
2023-08-12T18:06:29.289Z,4.80
2023-08-12T18:08:56.548Z,4.70
2023-08-12T18:11:23.824Z,4.40
2023-08-12T18:13:51.238Z,4.10
2023-08-12T18:16:19.143Z,4.50
2023-08-12T18:18:46.436Z,3.90
2023-08-12T18:21:13.621Z,4.10
2023-08-12T18:23:41.579Z,3.90
2023-08-12T18:26:08.781Z,3.60
2023-08-12T18:28:35.992Z,3.80
2023-08-12T18:31:03.167Z,3.50
2023-08-12T18:33:30.357Z,3.40
2023-08-12T18:35:57.457Z,2.50
2023-08-12T18:38:24.785Z,4.00
2023-08-12T18:40:52.305Z,3.50
2023-08-12T18:43:19.503Z,4.10
2023-08-12T18:45:46.739Z,3.50
2023-08-12T18:48:14.003Z,3.90
2023-08-12T18:50:41.112Z,5.60
2023-08-12T18:53:08.292Z,3.20
2023-08-12T18:55:36.035Z,3.80
2023-08-12T18:58:03.354Z,4.00
2023-08-12T19:00:30.551Z,4.70
2023-08-12T19:02:57.733Z,2.70
2023-08-12T19:05:25.072Z,3.00
2023-08-12T19:07:52.282Z,2.80
2023-08-12T19:10:19.520Z,3.20
2023-08-12T19:12:46.752Z,2.80
2023-08-12T19:15:14.541Z,2.90
2023-08-12T19:17:41.806Z,2.80
2023-08-12T19:20:10.524Z,3.10
2023-08-12T19:22:37.836Z,2.80
2023-08-12T19:25:05.547Z,3.20
2023-08-12T19:27:32.766Z,2.80
2023-08-12T19:29:59.896Z,3.70
2023-08-12T19:32:27.133Z,4.00
2023-08-12T19:34:54.362Z,3.90
2023-08-12T19:37:21.845Z,4.00
2023-08-12T19:39:51.966Z,4.60
2023-08-12T19:42:20.342Z,4.20
2023-08-12T19:44:48.090Z,3.90
2023-08-12T19:47:16.304Z,4.00
2023-08-12T19:49:47.863Z,3.50
2023-08-12T19:52:16.662Z,3.80
2023-08-12T19:54:44.169Z,2.50
2023-08-12T19:57:13.333Z,2.60
2023-08-12T19:59:40.934Z,2.70
2023-08-12T20:02:12.891Z,2.50
2023-08-12T20:04:43.082Z,2.60
2023-08-12T20:07:12.648Z,2.30
2023-08-12T20:09:39.958Z,3.00
2023-08-12T20:12:09.077Z,2.20
2023-08-12T20:14:39.018Z,3.00
2023-08-12T20:17:07.193Z,2.20
2023-08-12T20:19:35.544Z,3.10
2023-08-12T20:22:03.166Z,2.30
2023-08-12T20:24:30.427Z,3.60
2023-08-12T20:26:57.914Z,5.40
2023-08-12T20:29:26.119Z,4.30
2023-08-12T20:31:54.181Z,2.50
2023-08-12T20:34:21.481Z,2.80
2023-08-12T20:36:49.227Z,3.70
2023-08-12T20:39:16.557Z,2.80
2023-08-12T20:41:43.769Z,2.40
2023-08-12T20:44:10.965Z,3.60
2023-08-12T20:46:38.303Z,2.50
2023-08-12T20:49:06.129Z,2.70
2023-08-12T20:51:33.320Z,3.20
2023-08-12T20:54:00.567Z,2.70
2023-08-12T20:56:27.992Z,2.90
2023-08-12T20:58:55.165Z,2.80
2023-08-12T21:01:22.424Z,4.40
2023-08-12T21:03:49.650Z,2.90
2023-08-12T21:06:17.030Z,3.30
2023-08-12T21:08:44.187Z,3.10
2023-08-12T21:11:12.163Z,3.00
2023-08-12T21:13:39.398Z,2.60
2023-08-12T21:16:06.701Z,3.00
2023-08-12T21:18:34.198Z,3.20
2023-08-12T21:21:01.469Z,2.80
2023-08-12T21:23:28.636Z,2.80
2023-08-12T21:25:55.809Z,2.90
2023-08-12T21:28:22.988Z,2.40
2023-08-12T21:30:50.193Z,2.50
2023-08-12T21:33:18.109Z,2.40
2023-08-12T21:35:45.256Z,4.20
2023-08-12T21:38:12.456Z,3.30
2023-08-12T21:40:40.236Z,3.00
2023-08-12T21:43:07.556Z,3.10
2023-08-12T21:45:34.833Z,3.20
2023-08-12T21:48:02.164Z,4.20
2023-08-12T21:50:30.959Z,3.40
2023-08-12T21:52:58.803Z,3.30
2023-08-12T21:55:26.079Z,4.00
2023-08-12T21:57:55.579Z,4.30
2023-08-12T22:00:23.871Z,5.30
2023-08-12T22:02:51.100Z,3.10
2023-08-12T22:05:18.580Z,3.70
2023-08-12T22:07:45.879Z,4.30
2023-08-12T22:10:13.173Z,3.40
2023-08-12T22:12:41.632Z,3.90
2023-08-12T22:15:09.525Z,4.20
2023-08-12T22:17:37.263Z,4.20
2023-08-12T22:20:05.077Z,3.00
2023-08-12T22:22:32.304Z,2.70
2023-08-12T22:24:59.453Z,2.60
2023-08-12T22:27:27.199Z,3.00
2023-08-12T22:29:54.370Z,3.30
2023-08-12T22:32:22.152Z,3.50
2023-08-12T22:34:49.350Z,2.30
2023-08-12T22:37:16.571Z,2.40
2023-08-12T22:39:43.744Z,3.00
2023-08-12T22:42:10.908Z,2.00
2023-08-12T22:44:38.137Z,3.00
2023-08-12T22:47:05.697Z,2.30
2023-08-12T22:49:32.959Z,2.50
2023-08-12T22:52:00.283Z,2.00
2023-08-12T22:54:27.608Z,1.90
2023-08-12T22:56:54.754Z,2.40
2023-08-12T22:59:21.924Z,2.10
2023-08-12T23:01:49.077Z,2.40
2023-08-12T23:04:16.401Z,2.00
2023-08-12T23:06:43.576Z,2.90
2023-08-12T23:09:10.808Z,1.60
2023-08-12T23:11:38.296Z,2.80
2023-08-12T23:14:05.532Z,2.00
2023-08-12T23:16:32.902Z,1.80
2023-08-12T23:19:00.227Z,1.90
2023-08-12T23:21:27.367Z,1.90
2023-08-12T23:23:54.587Z,1.80
2023-08-12T23:26:22.015Z,2.00
2023-08-12T23:28:49.190Z,1.80
2023-08-12T23:31:16.341Z,2.50
2023-08-12T23:33:43.572Z,2.30
2023-08-12T23:36:10.753Z,2.50
2023-08-12T23:38:37.879Z,2.50
2023-08-12T23:41:05.152Z,1.90
2023-08-12T23:43:32.584Z,2.50
2023-08-12T23:46:03.283Z,2.40
2023-08-12T23:48:30.631Z,2.00
2023-08-12T23:50:57.869Z,2.30
2023-08-12T23:53:26.156Z,2.20
2023-08-12T23:55:53.436Z,2.60
2023-08-12T23:58:21.347Z,3.10
